Time;durP1;ratioP1;P1;durP2;ratioP2;P2;SDS_P1;SDS_P2;PMS_P1;PMS_P2;Temp;Humidity;BMP_temperature;BMP_pressure;BME280_temperature;BME280_humidity;BME280_pressure;Samples;Min_cycle;Max_cycle;Signal;HPM_P1;HPM_P2
2021/11/19 00:01:15;;;;;;;35.30;21.70;;;;;;;;;;5033400;28;20441;-78
2021/11/19 00:03:42;;;;;;;42.50;23.40;;;;;;;;;;5033107;28;20446;-78
2021/11/19 00:06:11;;;;;;;48.43;26.77;;;;;;;;;;5033517;28;20441;-76
2021/11/19 00:08:39;;;;;;;42.53;24.33;;;;;;;;;;5033291;28;20565;-78
2021/11/19 00:11:07;;;;;;;52.63;24.33;;;;;;;;;;5033094;28;20565;-77
2021/11/19 00:13:34;;;;;;;53.30;25.17;;;;;;;;;;5032892;28;20454;-78
2021/11/19 00:16:02;;;;;;;46.93;24.90;;;;;;;;;;5033500;28;20525;-77
2021/11/19 00:18:29;;;;;;;51.97;25.83;;;;;;;;;;5034126;28;20983;-77
2021/11/19 00:20:56;;;;;;;48.33;24.90;;;;;;;;;;5033677;28;20482;-78
2021/11/19 00:23:25;;;;;;;41.83;23.53;;;;;;;;;;5032988;28;20532;-77
2021/11/19 00:25:52;;;;;;;54.20;24.33;;;;;;;;;;5033233;28;20477;-77
2021/11/19 00:28:20;;;;;;;50.27;24.60;;;;;;;;;;5033459;28;20550;-76
2021/11/19 00:30:48;;;;;;;49.30;25.43;;;;;;;;;;5033217;28;20438;-77
2021/11/19 00:33:15;;;;;;;52.60;24.80;;;;;;;;;;5033990;28;20456;-77
2021/11/19 00:35:44;;;;;;;50.73;23.60;;;;;;;;;;5033292;28;20492;-78
2021/11/19 00:38:12;;;;;;;57.73;25.23;;;;;;;;;;5033078;28;20529;-78
2021/11/19 00:40:42;;;;;;;56.77;26.00;;;;;;;;;;5032803;28;20979;-77
2021/11/19 00:43:09;;;;;;;66.17;28.67;;;;;;;;;;5033339;28;20454;-77
2021/11/19 00:45:36;;;;;;;52.93;27.47;;;;;;;;;;5032703;28;20446;-77
2021/11/19 00:48:05;;;;;;;56.93;26.10;;;;;;;;;;5034521;28;20935;-79
2021/11/19 00:50:34;;;;;;;54.33;26.90;;;;;;;;;;5036769;28;20799;-77
2021/11/19 00:53:01;;;;;;;57.87;28.30;;;;;;;;;;5036730;28;20840;-78
2021/11/19 00:55:28;;;;;;;45.80;24.80;;;;;;;;;;5036309;28;20480;-78
2021/11/19 00:57:57;;;;;;;43.03;22.00;;;;;;;;;;5036433;28;20525;-77
2021/11/19 01:00:25;;;;;;;56.17;25.70;;;;;;;;;;5037276;28;20533;-77
2021/11/19 01:02:53;;;;;;;72.20;25.93;;;;;;;;;;5037253;28;20855;-78
2021/11/19 01:05:20;;;;;;;52.93;28.80;;;;;;;;;;5036358;28;20444;-77
2021/11/19 01:07:47;;;;;;;80.67;30.10;;;;;;;;;;5036027;28;20947;-77
2021/11/19 01:10:21;;;;;;;64.47;30.03;;;;;;;;;;5036171;28;20478;-78
2021/11/19 01:12:49;;;;;;;62.63;29.60;;;;;;;;;;5036104;28;20523;-78
2021/11/19 01:15:19;;;;;;;58.80;27.33;;;;;;;;;;5036105;28;20263;-78
2021/11/19 01:17:48;;;;;;;54.00;27.77;;;;;;;;;;5036968;28;20449;-77
2021/11/19 01:20:18;;;;;;;61.70;30.60;;;;;;;;;;5035820;28;20481;-79
2021/11/19 01:22:47;;;;;;;62.53;28.90;;;;;;;;;;5036026;28;20298;-78
2021/11/19 01:25:15;;;;;;;56.63;28.63;;;;;;;;;;5035945;28;20473;-79
2021/11/19 01:27:42;;;;;;;63.27;30.20;;;;;;;;;;5035984;28;20791;-79
2021/11/19 01:30:11;;;;;;;59.67;30.37;;;;;;;;;;5035801;28;20478;-79
2021/11/19 01:32:40;;;;;;;72.10;33.20;;;;;;;;;;5035582;28;20531;-79
2021/11/19 01:35:07;;;;;;;67.37;34.07;;;;;;;;;;5035463;28;21015;-78
2021/11/19 01:37:34;;;;;;;61.47;33.33;;;;;;;;;;5036211;28;20536;-77
2021/11/19 01:40:02;;;;;;;62.95;29.60;;;;;;;;;;5036517;28;20442;-79
2021/11/19 01:42:32;;;;;;;63.30;28.70;;;;;;;;;;5035636;28;20206;-81
2021/11/19 01:45:02;;;;;;;49.43;31.77;;;;;;;;;;5036153;28;20438;-80
2021/11/19 01:47:30;;;;;;;64.40;32.63;;;;;;;;;;5036381;28;20853;-79
2021/11/19 01:49:59;;;;;;;62.73;31.20;;;;;;;;;;5035777;28;20482;-78
2021/11/19 01:52:29;;;;;;;59.70;28.50;;;;;;;;;;5035477;28;20529;-79
2021/11/19 01:54:59;;;;;;;60.07;31.40;;;;;;;;;;5036171;28;20529;-77
2021/11/19 01:57:28;;;;;;;55.93;29.97;;;;;;;;;;5035049;28;20449;-79
2021/11/19 01:59:58;;;;;;;58.97;33.50;;;;;;;;;;5034173;28;20584;-79
2021/11/19 02:02:30;;;;;;;64.70;31.03;;;;;;;;;;5035227;28;20434;-81
2021/11/19 02:05:02;;;;;;;52.97;29.63;;;;;;;;;;5035037;28;20489;-80
2021/11/19 02:07:30;;;;;;;60.70;35.57;;;;;;;;;;5034715;28;20521;-79
2021/11/19 02:10:02;;;;;;;61.23;32.63;;;;;;;;;;5034561;28;20568;-78
2021/11/19 02:12:33;;;;;;;55.87;29.10;;;;;;;;;;5034937;28;20553;-78
2021/11/19 02:15:03;;;;;;;59.97;36.33;;;;;;;;;;5034573;28;20441;-77
2021/11/19 02:17:31;;;;;;;67.30;35.40;;;;;;;;;;5035055;28;20450;-78
2021/11/19 02:20:01;;;;;;;64.67;29.00;;;;;;;;;;5034573;28;20927;-77
2021/11/19 02:22:31;;;;;;;66.73;35.67;;;;;;;;;;5034605;28;20531;-77
2021/11/19 02:25:00;;;;;;;57.03;33.13;;;;;;;;;;5034210;28;20954;-78
2021/11/19 02:27:29;;;;;;;66.47;34.50;;;;;;;;;;5034520;28;20441;-78
2021/11/19 02:29:58;;;;;;;65.23;33.53;;;;;;;;;;5034450;28;21067;-77
2021/11/19 02:32:27;;;;;;;64.17;33.23;;;;;;;;;;5034338;28;20536;-77
2021/11/19 02:34:54;;;;;;;73.50;34.50;;;;;;;;;;5034895;28;20866;-77
2021/11/19 02:37:26;;;;;;;62.27;33.73;;;;;;;;;;5034625;28;20485;-77
2021/11/19 02:39:55;;;;;;;55.77;32.53;;;;;;;;;;5034305;28;20513;-77
2021/11/19 02:42:24;;;;;;;66.63;33.27;;;;;;;;;;5034446;28;20541;-78
2021/11/19 02:44:52;;;;;;;55.57;31.70;;;;;;;;;;5034475;28;20533;-77
2021/11/19 02:47:21;;;;;;;61.87;27.13;;;;;;;;;;5033905;28;20481;-77
2021/11/19 02:49:52;;;;;;;60.07;37.10;;;;;;;;;;5034648;28;21067;-78
2021/11/19 02:52:22;;;;;;;49.57;30.40;;;;;;;;;;5033843;28;20469;-77
2021/11/19 02:54:50;;;;;;;53.97;30.13;;;;;;;;;;5034314;28;20473;-77
2021/11/19 02:57:18;;;;;;;41.67;27.40;;;;;;;;;;5033658;28;20485;-77
2021/11/19 02:59:46;;;;;;;51.43;29.70;;;;;;;;;;5034179;28;20533;-78
2021/11/19 03:02:15;;;;;;;47.73;31.03;;;;;;;;;;5033578;28;20537;-77
2021/11/19 03:04:44;;;;;;;42.03;29.50;;;;;;;;;;5033478;28;20971;-78
2021/11/19 03:07:12;;;;;;;53.50;31.17;;;;;;;;;;5033451;28;20529;-77
2021/11/19 03:09:41;;;;;;;44.70;25.10;;;;;;;;;;5033796;28;20665;-76
2021/11/19 03:12:10;;;;;;;44.40;27.17;;;;;;;;;;5033301;28;20553;-77
2021/11/19 03:14:38;;;;;;;43.27;25.03;;;;;;;;;;5033817;28;20438;-77
2021/11/19 03:17:07;;;;;;;45.83;29.30;;;;;;;;;;5033698;28;20534;-77
2021/11/19 03:19:35;;;;;;;45.10;28.60;;;;;;;;;;5033288;28;20525;-77
2021/11/19 03:22:02;;;;;;;45.50;29.43;;;;;;;;;;5033656;28;20529;-77
2021/11/19 03:24:29;;;;;;;40.33;23.50;;;;;;;;;;5033698;28;20549;-77
2021/11/19 03:26:57;;;;;;;42.00;26.70;;;;;;;;;;5033773;28;20518;-78
2021/11/19 03:29:26;;;;;;;41.50;26.83;;;;;;;;;;5033568;28;20915;-79
2021/11/19 03:31:54;;;;;;;47.13;28.50;;;;;;;;;;5033336;28;20446;-77
2021/11/19 03:34:22;;;;;;;37.50;23.70;;;;;;;;;;5033751;28;21001;-77
2021/11/19 03:36:56;;;;;;;40.23;24.27;;;;;;;;;;5033338;28;20541;-78
2021/11/19 03:39:24;;;;;;;37.57;23.50;;;;;;;;;;5033697;28;20507;-77
2021/11/19 03:41:52;;;;;;;37.13;23.50;;;;;;;;;;5033568;28;20465;-78
2021/11/19 03:44:21;;;;;;;44.63;27.30;;;;;;;;;;5033374;28;20533;-77
2021/11/19 03:46:51;;;;;;;36.20;23.70;;;;;;;;;;5033266;28;20541;-77
2021/11/19 03:49:19;;;;;;;46.20;27.17;;;;;;;;;;5033241;28;20431;-76
2021/11/19 03:51:47;;;;;;;39.87;27.00;;;;;;;;;;5033458;28;20446;-77
2021/11/19 03:54:16;;;;;;;46.07;27.40;;;;;;;;;;5033454;28;20477;-78
2021/11/19 03:56:43;;;;;;;44.93;28.30;;;;;;;;;;5032851;28;20566;-77
2021/11/19 03:59:12;;;;;;;42.40;25.20;;;;;;;;;;5033444;28;20434;-78
2021/11/19 04:01:40;;;;;;;41.37;26.13;;;;;;;;;;5033201;28;20446;-77
2021/11/19 04:04:10;;;;;;;46.30;27.93;;;;;;;;;;5033075;28;20503;-78
2021/11/19 04:06:37;;;;;;;45.40;19.70;;;;;;;;;;5032807;28;20539;-77
2021/11/19 04:09:05;;;;;;;45.10;25.77;;;;;;;;;;5033105;28;20445;-78
2021/11/19 04:11:32;;;;;;;46.50;25.97;;;;;;;;;;5033042;28;20610;-77
2021/11/19 04:14:00;;;;;;;50.07;29.20;;;;;;;;;;5033184;28;20446;-76
2021/11/19 04:16:28;;;;;;;50.73;26.50;;;;;;;;;;5032746;28;20449;-77
2021/11/19 04:18:55;;;;;;;40.78;24.65;;;;;;;;;;5033037;28;20525;-76
2021/11/19 04:21:24;;;;;;;44.17;24.90;;;;;;;;;;5033070;28;20284;-77
2021/11/19 04:23:53;;;;;;;47.63;27.40;;;;;;;;;;5036980;28;20457;-77
2021/11/19 04:26:20;;;;;;;51.40;31.27;;;;;;;;;;5037363;28;20438;-76
2021/11/19 04:28:48;;;;;;;51.13;30.20;;;;;;;;;;5036502;28;20454;-76
2021/11/19 04:31:18;;;;;;;47.37;27.43;;;;;;;;;;5036699;28;20478;-76
2021/11/19 04:33:46;;;;;;;50.57;27.40;;;;;;;;;;5036498;28;20430;-76
2021/11/19 04:36:13;;;;;;;51.90;29.40;;;;;;;;;;5036675;28;20534;-77
2021/11/19 04:38:42;;;;;;;47.50;26.20;;;;;;;;;;5036304;28;20529;-76
2021/11/19 04:41:10;;;;;;;39.93;26.20;;;;;;;;;;5036567;28;20529;-76
2021/11/19 04:43:37;;;;;;;49.83;29.27;;;;;;;;;;5036181;28;20552;-76
2021/11/19 04:46:05;;;;;;;47.60;29.87;;;;;;;;;;5036171;28;20474;-76
2021/11/19 04:48:34;;;;;;;53.93;29.73;;;;;;;;;;5036038;28;20537;-76
2021/11/19 04:51:02;;;;;;;48.40;30.03;;;;;;;;;;5036325;28;20484;-76
2021/11/19 04:53:30;;;;;;;48.03;27.27;;;;;;;;;;5036662;28;20537;-76
2021/11/19 04:55:58;;;;;;;46.63;28.67;;;;;;;;;;5036195;28;20850;-76
2021/11/19 04:58:26;;;;;;;46.43;27.73;;;;;;;;;;5036216;28;20536;-76
2021/11/19 05:00:57;;;;;;;50.30;31.33;;;;;;;;;;5035867;28;20975;-76
2021/11/19 05:03:24;;;;;;;59.83;31.27;;;;;;;;;;5035751;28;20477;-78
2021/11/19 05:05:52;;;;;;;52.43;30.70;;;;;;;;;;5035912;28;20528;-77
2021/11/19 05:08:19;;;;;;;54.50;32.20;;;;;;;;;;5035722;28;20444;-81
2021/11/19 05:10:48;;;;;;;54.17;30.07;;;;;;;;;;5035724;28;20477;-76
2021/11/19 05:13:18;;;;;;;51.93;31.63;;;;;;;;;;5036495;28;20488;-76
2021/11/19 05:15:46;;;;;;;58.77;31.57;;;;;;;;;;5035854;28;20833;-77
2021/11/19 05:18:14;;;;;;;56.10;32.77;;;;;;;;;;5035602;28;20457;-77
2021/11/19 05:20:41;;;;;;;52.90;34.10;;;;;;;;;;5035688;28;20438;-76
2021/11/19 05:23:09;;;;;;;57.20;32.57;;;;;;;;;;5035352;28;20528;-76
2021/11/19 05:25:39;;;;;;;49.43;30.87;;;;;;;;;;5036409;28;20498;-77
2021/11/19 05:28:07;;;;;;;41.43;26.23;;;;;;;;;;5035812;28;20433;-77
2021/11/19 05:30:36;;;;;;;48.13;29.47;;;;;;;;;;5035444;28;20493;-76
2021/11/19 05:33:03;;;;;;;43.73;27.63;;;;;;;;;;5034631;28;20525;-76
2021/11/19 05:35:31;;;;;;;50.43;30.73;;;;;;;;;;5034707;28;20520;-76
2021/11/19 05:37:59;;;;;;;45.87;28.73;;;;;;;;;;5034917;28;20473;-75
2021/11/19 05:40:26;;;;;;;45.07;29.23;;;;;;;;;;5034809;28;20533;-75
2021/11/19 05:42:54;;;;;;;42.03;27.20;;;;;;;;;;5034735;28;20493;-74
2021/11/19 05:45:23;;;;;;;43.40;26.10;;;;;;;;;;5034711;28;20445;-74
2021/11/19 05:47:51;;;;;;;43.70;28.67;;;;;;;;;;5034826;28;20530;-74
2021/11/19 05:50:21;;;;;;;43.20;25.33;;;;;;;;;;5026637;28;20607;-74
2021/11/19 05:52:48;;;;;;;45.30;27.60;;;;;;;;;;5014452;28;20440;-75
2021/11/19 05:55:17;;;;;;;45.97;28.43;;;;;;;;;;5014130;28;20501;-73
2021/11/19 05:57:45;;;;;;;43.50;26.97;;;;;;;;;;5014540;28;20521;-74
2021/11/19 06:00:14;;;;;;;40.77;27.53;;;;;;;;;;5015359;28;20525;-74
2021/11/19 06:02:41;;;;;;;45.30;27.47;;;;;;;;;;5014832;28;20536;-71
2021/11/19 06:05:11;;;;;;;52.07;28.70;;;;;;;;;;5014976;28;20542;-70
2021/11/19 06:07:38;;;;;;;45.63;30.27;;;;;;;;;;5015380;28;20482;-71
2021/11/19 06:10:06;;;;;;;46.83;28.87;;;;;;;;;;5015063;28;20571;-72
2021/11/19 06:12:35;;;;;;;46.73;28.67;;;;;;;;;;5014957;28;20483;-72
2021/11/19 06:15:05;;;;;;;46.53;29.70;;;;;;;;;;5014839;28;20542;-71
2021/11/19 06:17:33;;;;;;;51.20;27.83;;;;;;;;;;5014423;28;20475;-72
2021/11/19 06:20:03;;;;;;;52.33;29.03;;;;;;;;;;5014991;28;20564;-73
2021/11/19 06:22:34;;;;;;;46.30;29.00;;;;;;;;;;5013170;28;20978;-71
2021/11/19 06:25:02;;;;;;;55.37;29.40;;;;;;;;;;5014892;28;20514;-72
2021/11/19 06:27:46;;;;;;;50.73;30.50;;;;;;;;;;5014484;28;20435;-71
2021/11/19 06:30:18;;;;;;;54.97;29.20;;;;;;;;;;5014486;28;20533;-71
2021/11/19 06:32:45;;;;;;;58.10;28.57;;;;;;;;;;5014933;28;20859;-70
2021/11/19 06:35:16;;;;;;;58.77;30.67;;;;;;;;;;5014562;28;20534;-74
2021/11/19 06:37:48;;;;;;;55.10;29.43;;;;;;;;;;5014837;28;20852;-72
2021/11/19 06:40:17;;;;;;;53.57;31.87;;;;;;;;;;5014686;28;20439;-70
2021/11/19 06:42:57;;;;;;;50.53;28.93;;;;;;;;;;5014676;28;20451;-71
2021/11/19 06:45:24;;;;;;;51.17;31.07;;;;;;;;;;5013971;28;20455;-69
2021/11/19 06:47:51;;;;;;;62.60;30.23;;;;;;;;;;5013910;28;20526;-69
2021/11/19 06:50:20;;;;;;;54.57;30.07;;;;;;;;;;5014385;28;20569;-69
2021/11/19 06:52:49;;;;;;;52.67;27.63;;;;;;;;;;5012364;28;20953;-69
2021/11/19 06:55:16;;;;;;;43.73;26.73;;;;;;;;;;5014294;28;20546;-70
2021/11/19 06:57:44;;;;;;;49.70;26.50;;;;;;;;;;5014000;28;20489;-69
2021/11/19 07:00:12;;;;;;;53.33;28.97;;;;;;;;;;5013092;28;20545;-69
2021/11/19 07:02:40;;;;;;;52.10;27.93;;;;;;;;;;5013113;28;21030;-69
2021/11/19 07:05:07;;;;;;;47.80;28.93;;;;;;;;;;5014108;28;20453;-70
2021/11/19 07:07:34;;;;;;;41.30;26.57;;;;;;;;;;5013910;28;20530;-69
2021/11/19 07:10:04;;;;;;;51.87;28.37;;;;;;;;;;5014951;28;20472;-70
2021/11/19 07:12:32;;;;;;;46.93;28.13;;;;;;;;;;5014390;28;20906;-69
2021/11/19 07:14:59;;;;;;;48.33;27.70;;;;;;;;;;5013980;28;20522;-69
2021/11/19 07:17:26;;;;;;;47.80;27.97;;;;;;;;;;5013042;28;20533;-69
2021/11/19 07:19:54;;;;;;;49.37;27.30;;;;;;;;;;5014098;28;20455;-69
2021/11/19 07:22:21;;;;;;;54.80;30.13;;;;;;;;;;5021852;28;20743;-69
2021/11/19 07:24:52;;;;;;;53.10;26.40;;;;;;;;;;5033792;28;20478;-69
2021/11/19 07:27:21;;;;;;;49.97;25.57;;;;;;;;;;5033758;28;20538;-69
2021/11/19 07:29:49;;;;;;;50.37;28.37;;;;;;;;;;5033368;28;20818;-69
2021/11/19 07:32:16;;;;;;;48.47;27.63;;;;;;;;;;5033185;28;20505;-69
2021/11/19 07:34:44;;;;;;;50.93;28.67;;;;;;;;;;5033678;28;20438;-69
2021/11/19 07:37:11;;;;;;;57.40;29.47;;;;;;;;;;5033312;28;20603;-69
2021/11/19 07:39:39;;;;;;;50.27;28.50;;;;;;;;;;5033333;28;20448;-69
2021/11/19 07:42:07;;;;;;;53.17;27.30;;;;;;;;;;5032978;28;20477;-69
2021/11/19 07:44:35;;;;;;;51.47;28.43;;;;;;;;;;5033145;28;21029;-69
2021/11/19 07:47:03;;;;;;;47.37;26.50;;;;;;;;;;5033364;28;20518;-69
2021/11/19 07:49:30;;;;;;;57.13;30.10;;;;;;;;;;5033483;28;20549;-69
2021/11/19 07:51:57;;;;;;;48.83;27.03;;;;;;;;;;5033155;28;20567;-70
2021/11/19 07:54:24;;;;;;;65.57;29.87;;;;;;;;;;5031977;28;20788;-68
2021/11/19 07:56:52;;;;;;;60.60;27.83;;;;;;;;;;5034811;28;20527;-70
2021/11/19 07:59:20;;;;;;;48.53;27.17;;;;;;;;;;5037649;28;20448;-69
2021/11/19 08:01:49;;;;;;;51.77;29.97;;;;;;;;;;5037567;28;20521;-69
2021/11/19 08:04:16;;;;;;;47.80;25.60;;;;;;;;;;5036326;28;20488;-69
2021/11/19 08:06:44;;;;;;;47.77;23.30;;;;;;;;;;5035783;28;21045;-69
2021/11/19 08:09:12;;;;;;;51.70;28.37;;;;;;;;;;5036279;28;20449;-69
2021/11/19 08:11:40;;;;;;;48.23;27.17;;;;;;;;;;5037329;28;21066;-69
2021/11/19 08:14:07;;;;;;;50.50;28.87;;;;;;;;;;5037518;28;20548;-70
2021/11/19 08:16:37;;;;;;;47.67;27.67;;;;;;;;;;5036471;28;21003;-69
2021/11/19 08:19:08;;;;;;;53.77;30.23;;;;;;;;;;5036947;28;20843;-69
2021/11/19 08:21:35;;;;;;;53.10;30.47;;;;;;;;;;5037807;28;20438;-69
2021/11/19 08:24:04;;;;;;;47.63;26.47;;;;;;;;;;5035257;28;20449;-69
2021/11/19 08:26:33;;;;;;;43.40;24.67;;;;;;;;;;5036564;28;20438;-70
2021/11/19 08:29:01;;;;;;;45.30;25.07;;;;;;;;;;5036287;28;20438;-71
2021/11/19 08:31:29;;;;;;;50.65;29.13;;;;;;;;;;5037677;28;20796;-69
2021/11/19 08:33:56;;;;;;;46.33;24.30;;;;;;;;;;5036941;28;20246;-70
2021/11/19 08:36:26;;;;;;;51.93;29.63;;;;;;;;;;5036759;28;20529;-70
2021/11/19 08:38:54;;;;;;;46.33;26.87;;;;;;;;;;5036545;28;20966;-70
2021/11/19 08:41:22;;;;;;;54.47;30.10;;;;;;;;;;5036410;28;20533;-70
2021/11/19 08:43:51;;;;;;;48.10;25.83;;;;;;;;;;5036524;28;20891;-70
2021/11/19 08:46:20;;;;;;;49.00;25.67;;;;;;;;;;5036851;28;20529;-69
2021/11/19 08:48:49;;;;;;;44.63;24.80;;;;;;;;;;5035933;28;20532;-70
2021/11/19 08:51:19;;;;;;;56.30;28.90;;;;;;;;;;5016799;28;20489;-69
2021/11/19 08:53:48;;;;;;;52.00;27.13;;;;;;;;;;5015110;28;20442;-70
2021/11/19 08:56:15;;;;;;;50.63;28.77;;;;;;;;;;5016266;28;20531;-70
2021/11/19 08:58:43;;;;;;;52.60;28.00;;;;;;;;;;5016760;28;20932;-70
2021/11/19 09:01:12;;;;;;;51.50;27.53;;;;;;;;;;5016676;28;20875;-71
2021/11/19 09:03:39;;;;;;;45.90;26.60;;;;;;;;;;5016425;28;20536;-71
2021/11/19 09:06:08;;;;;;;50.17;28.10;;;;;;;;;;5016172;28;20949;-70
2021/11/19 09:08:36;;;;;;;48.43;27.53;;;;;;;;;;5015412;28;20446;-70
2021/11/19 09:11:06;;;;;;;52.77;30.50;;;;;;;;;;5014792;28;20593;-69
2021/11/19 09:13:33;;;;;;;48.30;28.23;;;;;;;;;;5015422;28;20549;-70
2021/11/19 09:16:01;;;;;;;46.53;27.40;;;;;;;;;;5015943;28;20477;-71
2021/11/19 09:18:33;;;;;;;49.65;29.10;;;;;;;;;;5015719;28;20482;-70
2021/11/19 09:21:26;;;;;;;59.23;30.93;;;;;;;;;;5016579;28;20277;-70
2021/11/19 09:23:55;;;;;;;58.40;32.77;;;;;;;;;;5000174;28;20523;-69
2021/11/19 09:26:32;;;;;;;54.20;30.13;;;;;;;;;;5015279;28;20447;-70
2021/11/19 09:29:01;;;;;;;58.38;31.50;;;;;;;;;;5015738;28;20487;-70
2021/11/19 09:31:29;;;;;;;50.63;26.03;;;;;;;;;;5015540;28;20318;-70
2021/11/19 09:33:57;;;;;;;69.00;35.20;;;;;;;;;;5015783;28;20447;-71
2021/11/19 09:36:24;;;;;;;61.50;33.67;;;;;;;;;;5015541;28;20941;-72
2021/11/19 09:38:51;;;;;;;62.97;32.37;;;;;;;;;;5015962;28;20854;-70
2021/11/19 09:41:26;;;;;;;60.85;34.10;;;;;;;;;;5015635;28;20529;-71
2021/11/19 09:44:02;;;;;;;67.57;33.60;;;;;;;;;;5016173;28;20192;-71
2021/11/19 09:46:40;;;;;;;70.43;38.17;;;;;;;;;;5015372;28;20458;-71
2021/11/19 09:49:11;;;;;;;61.20;33.50;;;;;;;;;;5015460;28;20474;-71
2021/11/19 09:51:57;;;;;;;74.40;35.67;;;;;;;;;;5016177;28;20917;-71
2021/11/19 09:54:55;;;;;;;63.33;34.43;;;;;;;;;;5015471;28;20566;-71
2021/11/19 09:57:40;;;;;;;68.27;36.03;;;;;;;;;;5015970;28;20501;-70
2021/11/19 10:00:14;;;;;;;73.23;37.83;;;;;;;;;;5015450;28;20518;-72
2021/11/19 10:02:48;;;;;;;70.47;35.77;;;;;;;;;;5015633;28;20510;-72
2021/11/19 10:05:25;;;;;;;65.90;34.00;;;;;;;;;;5015471;28;20423;-72
2021/11/19 10:08:18;;;;;;;62.00;35.80;;;;;;;;;;5015250;28;20505;-71
2021/11/19 10:10:55;;;;;;;68.63;31.40;;;;;;;;;;5014586;28;20431;-71
2021/11/19 10:13:37;;;;;;;62.40;33.90;;;;;;;;;;5014794;28;20497;-72
2021/11/19 10:16:13;;;;;;;65.80;32.97;;;;;;;;;;5002040;28;20454;-71
2021/11/19 10:18:42;;;;;;;70.43;35.40;;;;;;;;;;5013774;28;20470;-73
2021/11/19 10:21:11;;;;;;;74.07;38.13;;;;;;;;;;5013436;28;20451;-73
2021/11/19 10:23:40;;;;;;;63.60;36.00;;;;;;;;;;5015601;28;20801;-73
2021/11/19 10:26:09;;;;;;;67.60;35.00;;;;;;;;;;5025916;28;20959;-72
2021/11/19 10:28:38;;;;;;;52.33;30.60;;;;;;;;;;5033964;28;20481;-73
2021/11/19 10:31:06;;;;;;;63.93;35.87;;;;;;;;;;5034142;28;20525;-73
2021/11/19 10:33:37;;;;;;;56.87;34.17;;;;;;;;;;5034337;28;20466;-72
2021/11/19 10:36:19;;;;;;;75.20;37.37;;;;;;;;;;5034361;28;20514;-72
2021/11/19 10:39:16;;;;;;;67.47;37.23;;;;;;;;;;5034630;28;20469;-72
2021/11/19 10:42:14;;;;;;;69.83;39.40;;;;;;;;;;4954094;29;20468;-73
2021/11/19 10:44:56;;;;;;;67.47;38.27;;;;;;;;;;4952877;28;20544;-73
2021/11/19 10:47:43;;;;;;;65.17;35.20;;;;;;;;;;5024005;28;20499;-72
2021/11/19 10:50:25;;;;;;;68.97;36.93;;;;;;;;;;5034129;28;20513;-72
2021/11/19 10:53:08;;;;;;;63.63;39.30;;;;;;;;;;5017158;28;20481;-72
2021/11/19 10:55:54;;;;;;;73.83;36.03;;;;;;;;;;5034032;28;20445;-70
2021/11/19 10:58:29;;;;;;;67.87;36.10;;;;;;;;;;5034087;28;20525;-73
2021/11/19 11:01:09;;;;;;;67.90;35.50;;;;;;;;;;5033614;28;20422;-74
2021/11/19 11:03:41;;;;;;;69.43;36.53;;;;;;;;;;5033742;28;20427;-73
2021/11/19 11:06:10;;;;;;;77.17;37.53;;;;;;;;;;5034078;28;20458;-72
2021/11/19 11:08:40;;;;;;;64.40;36.30;;;;;;;;;;5033735;28;20474;-72
2021/11/19 11:11:10;;;;;;;67.07;37.70;;;;;;;;;;5033478;28;20514;-73
2021/11/19 11:13:41;;;;;;;73.83;38.77;;;;;;;;;;5034696;28;20516;-73
2021/11/19 11:16:10;;;;;;;68.70;37.33;;;;;;;;;;5034118;28;20481;-73
2021/11/19 11:18:38;;;;;;;58.33;34.93;;;;;;;;;;5033510;28;20469;-73
2021/11/19 11:21:29;;;;;;;67.03;35.43;;;;;;;;;;5032530;28;20529;-73
2021/11/19 11:24:26;;;;;;;70.23;37.60;;;;;;;;;;5032775;28;20897;-72
2021/11/19 11:26:57;;;;;;;52.20;30.40;;;;;;;;;;5030606;28;20446;-75
2021/11/19 11:29:36;;;;;;;60.03;33.07;;;;;;;;;;5013728;28;20431;-73
2021/11/19 11:32:09;;;;;;;57.83;30.97;;;;;;;;;;5013156;28;20467;-74
2021/11/19 11:34:42;;;;;;;64.40;33.67;;;;;;;;;;5013576;28;20424;-73
2021/11/19 11:37:24;;;;;;;60.90;33.13;;;;;;;;;;5013629;28;20442;-73
2021/11/19 11:39:55;;;;;;;59.27;35.03;;;;;;;;;;5014100;28;20428;-74
2021/11/19 11:42:25;;;;;;;49.83;32.50;;;;;;;;;;5013823;28;20851;-74
2021/11/19 11:44:54;;;;;;;54.83;31.57;;;;;;;;;;5014603;28;20510;-74
2021/11/19 11:47:30;;;;;;;49.40;31.50;;;;;;;;;;5013497;28;20449;-74
2021/11/19 11:49:59;;;;;;;51.77;29.20;;;;;;;;;;5014014;28;20431;-74
2021/11/19 11:52:29;;;;;;;58.07;30.13;;;;;;;;;;5013414;28;20479;-74
2021/11/19 11:55:03;;;;;;;45.27;27.03;;;;;;;;;;5013338;28;20446;-74
2021/11/19 11:57:40;;;;;;;55.53;29.37;;;;;;;;;;5012549;28;20441;-74
2021/11/19 12:00:08;;;;;;;52.37;31.27;;;;;;;;;;5013229;28;20426;-74
2021/11/19 12:02:52;;;;;;;57.10;32.90;;;;;;;;;;5013427;28;20478;-74
2021/11/19 12:05:39;;;;;;;43.37;28.80;;;;;;;;;;5013780;28;20511;-74
2021/11/19 12:08:22;;;;;;;46.63;28.70;;;;;;;;;;5008566;28;20458;-74
2021/11/19 12:10:58;;;;;;;43.10;26.20;;;;;;;;;;5013156;28;20425;-74
2021/11/19 12:13:31;;;;;;;53.63;31.10;;;;;;;;;;5013433;28;20549;-74
2021/11/19 12:16:03;;;;;;;35.67;24.30;;;;;;;;;;5012920;28;20909;-75
2021/11/19 12:18:34;;;;;;;47.93;28.40;;;;;;;;;;5013190;28;20519;-74
2021/11/19 12:21:05;;;;;;;45.80;26.83;;;;;;;;;;5013696;28;20507;-75
2021/11/19 12:23:35;;;;;;;44.67;27.17;;;;;;;;;;5013195;28;20530;-74
2021/11/19 12:26:21;;;;;;;47.20;29.50;;;;;;;;;;5012691;28;20430;-73
2021/11/19 12:28:56;;;;;;;49.70;27.87;;;;;;;;;;5011417;28;20921;-74
2021/11/19 12:31:27;;;;;;;48.20;28.00;;;;;;;;;;5013059;28;20512;-74
2021/11/19 12:33:57;;;;;;;42.77;27.37;;;;;;;;;;5012501;28;20471;-74
2021/11/19 12:36:25;;;;;;;42.07;27.10;;;;;;;;;;5013374;28;20467;-75
2021/11/19 12:38:54;;;;;;;41.87;28.67;;;;;;;;;;5012978;28;20538;-75
2021/11/19 12:41:23;;;;;;;43.33;27.20;;;;;;;;;;5013156;28;20849;-73
2021/11/19 12:44:08;;;;;;;39.67;26.57;;;;;;;;;;5014664;28;20455;-74
2021/11/19 12:46:45;;;;;;;37.60;22.83;;;;;;;;;;5016402;28;20533;-73
2021/11/19 12:49:25;;;;;;;39.40;25.53;;;;;;;;;;5016851;28;20455;-75
2021/11/19 12:51:55;;;;;;;41.90;26.80;;;;;;;;;;5016989;28;20517;-74
2021/11/19 12:54:32;;;;;;;44.97;27.20;;;;;;;;;;5016591;28;20439;-74
2021/11/19 12:57:20;;;;;;;38.33;27.80;;;;;;;;;;5016479;28;20463;-74
2021/11/19 12:59:53;;;;;;;42.57;25.80;;;;;;;;;;4990197;28;20483;-74
2021/11/19 13:02:26;;;;;;;39.47;26.33;;;;;;;;;;5015901;28;20523;-74
2021/11/19 13:05:09;;;;;;;38.17;27.70;;;;;;;;;;5016384;28;20913;-74
2021/11/19 13:07:43;;;;;;;40.17;26.10;;;;;;;;;;5016670;28;20466;-74
2021/11/19 13:10:25;;;;;;;37.70;26.73;;;;;;;;;;5016633;28;20518;-74
2021/11/19 13:13:21;;;;;;;38.97;26.53;;;;;;;;;;5015704;28;20589;-74
2021/11/19 13:15:49;;;;;;;43.03;27.70;;;;;;;;;;5016254;28;20530;-77
2021/11/19 13:18:34;;;;;;;39.07;25.57;;;;;;;;;;5015971;28;20447;-77
2021/11/19 13:21:05;;;;;;;36.73;25.20;;;;;;;;;;5016661;28;20428;-79
2021/11/19 13:23:50;;;;;;;35.57;23.73;;;;;;;;;;5016061;28;20485;-80
2021/11/19 13:26:32;;;;;;;39.53;24.90;;;;;;;;;;5016034;28;20465;-79
2021/11/19 13:29:06;;;;;;;39.13;25.17;;;;;;;;;;5012233;28;20506;-79
2021/11/19 13:31:33;;;;;;;42.33;26.73;;;;;;;;;;5015749;28;20442;-79
2021/11/19 13:34:19;;;;;;;41.47;27.97;;;;;;;;;;5015475;28;21067;-78
2021/11/19 13:36:49;;;;;;;39.93;25.40;;;;;;;;;;5016344;28;20471;-77
2021/11/19 13:39:35;;;;;;;41.73;27.70;;;;;;;;;;5016282;28;20478;-77
2021/11/19 13:42:35;;;;;;;39.63;26.57;;;;;;;;;;5015928;28;20435;-77
2021/11/19 13:45:10;;;;;;;36.53;25.40;;;;;;;;;;5015391;28;20503;-76
2021/11/19 13:47:54;;;;;;;37.67;26.27;;;;;;;;;;5016062;28;20787;-77
2021/11/19 13:50:39;;;;;;;37.27;26.10;;;;;;;;;;5015911;28;20916;-77
2021/11/19 13:53:12;;;;;;;41.67;25.80;;;;;;;;;;5015242;28;20582;-78
2021/11/19 13:55:41;;;;;;;32.80;24.33;;;;;;;;;;5014977;28;20469;-76
2021/11/19 13:58:17;;;;;;;35.63;24.40;;;;;;;;;;5015915;28;20490;-78
2021/11/19 14:00:59;;;;;;;38.13;23.67;;;;;;;;;;5013932;28;20471;-79
2021/11/19 14:03:30;;;;;;;34.70;23.60;;;;;;;;;;5015024;28;20529;-78
2021/11/19 14:06:09;;;;;;;41.03;25.97;;;;;;;;;;5015865;28;20436;-78
2021/11/19 14:08:38;;;;;;;31.27;22.03;;;;;;;;;;5015645;28;20984;-78
2021/11/19 14:11:13;;;;;;;47.30;27.03;;;;;;;;;;5015304;28;20503;-77
2021/11/19 14:13:42;;;;;;;46.13;27.87;;;;;;;;;;5014712;28;20529;-77
2021/11/19 14:16:12;;;;;;;42.13;27.17;;;;;;;;;;5014609;28;20800;-78
2021/11/19 14:18:48;;;;;;;33.23;25.27;;;;;;;;;;5015583;28;20790;-78
2021/11/19 14:24:09;;;;;;;36.87;26.97;;;;;;;;;;5014266;28;20944;-77
2021/11/19 14:26:37;;;;;;;41.90;28.20;;;;;;;;;;5015180;28;20475;-78
2021/11/19 14:29:11;;;;;;;43.00;26.17;;;;;;;;;;5014331;28;20964;-79
2021/11/19 14:31:44;;;;;;;35.17;27.77;;;;;;;;;;5013439;28;20436;-79
2021/11/19 14:34:13;;;;;;;35.27;25.20;;;;;;;;;;5015368;28;20820;-78
2021/11/19 14:36:49;;;;;;;38.43;26.20;;;;;;;;;;5014953;28;20435;-78
2021/11/19 14:39:21;;;;;;;35.70;25.80;;;;;;;;;;5015159;28;20442;-78
2021/11/19 14:41:50;;;;;;;35.80;24.67;;;;;;;;;;5014732;28;20481;-76